createdAt,value
2023-05-04T00:00:50.019Z,11.31
2023-05-04T00:03:18.382Z,11.32
2023-05-04T00:05:48.036Z,11.26
2023-05-04T00:08:16.311Z,11.20
2023-05-04T00:10:44.507Z,11.19
2023-05-04T00:13:12.736Z,11.19
2023-05-04T00:15:41.446Z,11.10
2023-05-04T00:18:09.783Z,11.12
2023-05-04T00:20:38.250Z,11.03
2023-05-04T00:23:07.798Z,11.02
2023-05-04T00:25:36.049Z,10.96
2023-05-04T00:28:04.250Z,10.88
2023-05-04T00:30:32.454Z,10.98
2023-05-04T00:33:00.928Z,10.96
2023-05-04T00:35:29.884Z,10.85
2023-05-04T00:37:58.112Z,10.80
2023-05-04T00:40:27.718Z,10.82
2023-05-04T00:42:55.957Z,10.83
2023-05-04T00:45:24.243Z,10.82
2023-05-04T00:47:52.740Z,10.85
2023-05-04T00:50:21.190Z,10.75
2023-05-04T00:52:50.339Z,10.70
2023-05-04T00:55:19.080Z,10.71
2023-05-04T00:57:50.204Z,10.68
2023-05-04T01:00:19.033Z,10.71
2023-05-04T01:02:47.332Z,10.70
2023-05-04T01:05:16.963Z,10.66
2023-05-04T01:07:56.837Z,10.58
2023-05-04T01:10:31.277Z,10.66
2023-05-04T01:13:05.308Z,10.60
2023-05-04T01:15:34.378Z,10.60
2023-05-04T01:18:02.861Z,10.54
2023-05-04T01:20:31.702Z,10.41
2023-05-04T01:23:01.467Z,10.44
2023-05-04T01:25:35.299Z,10.42
2023-05-04T01:28:09.696Z,10.28
2023-05-04T01:30:41.769Z,10.35
2023-05-04T01:33:10.948Z,10.39
2023-05-04T01:35:39.582Z,10.39
2023-05-04T01:38:09.458Z,10.43
2023-05-04T01:40:37.670Z,10.37
2023-05-04T01:43:05.942Z,10.38
2023-05-04T01:45:34.313Z,10.27
2023-05-04T01:48:02.691Z,10.22
2023-05-04T01:50:31.007Z,10.21
2023-05-04T01:52:59.236Z,10.18
2023-05-04T01:55:28.799Z,10.22
2023-05-04T01:57:57.122Z,10.14
2023-05-04T02:00:25.542Z,10.15
2023-05-04T02:02:53.825Z,10.06
2023-05-04T02:05:22.206Z,10.08
2023-05-04T02:07:50.430Z,10.01
2023-05-04T02:10:18.692Z,9.89
2023-05-04T02:12:48.361Z,9.95
2023-05-04T02:15:16.692Z,9.83
2023-05-04T02:17:45.201Z,9.81
2023-05-04T02:20:15.099Z,9.85
2023-05-04T02:22:47.405Z,9.80
2023-05-04T02:25:15.918Z,9.79
2023-05-04T02:27:44.123Z,9.85
2023-05-04T02:30:15.140Z,9.78
2023-05-04T02:32:43.499Z,9.74
2023-05-04T02:35:12.985Z,9.67
2023-05-04T02:37:41.223Z,9.64
2023-05-04T02:40:10.501Z,9.59
2023-05-04T02:42:38.697Z,9.64
2023-05-04T02:45:09.158Z,9.52
2023-05-04T02:47:38.871Z,9.55
2023-05-04T02:50:08.792Z,9.52
2023-05-04T02:52:37.112Z,9.55
2023-05-04T02:55:05.810Z,9.49
2023-05-04T02:57:34.116Z,9.50
2023-05-04T03:00:02.563Z,9.50
2023-05-04T03:02:31.962Z,9.36
2023-05-04T03:05:01.594Z,9.46
2023-05-04T03:07:29.962Z,9.44
2023-05-04T03:09:58.161Z,9.38
2023-05-04T03:12:26.413Z,9.35
2023-05-04T03:14:54.980Z,9.30
2023-05-04T03:17:23.316Z,9.20
2023-05-04T03:19:54.716Z,9.25
2023-05-04T03:22:24.551Z,9.23
2023-05-04T03:24:52.841Z,9.17
2023-05-04T03:27:21.108Z,9.14
2023-05-04T03:29:49.327Z,9.07
2023-05-04T03:32:17.759Z,9.09
2023-05-04T03:34:46.883Z,9.03
2023-05-04T03:37:16.540Z,9.11
2023-05-04T03:39:46.189Z,9.09
2023-05-04T03:42:14.464Z,9.01
2023-05-04T03:44:42.704Z,9.07
2023-05-04T03:47:10.952Z,9.04
2023-05-04T03:49:39.222Z,9.03
2023-05-04T03:52:07.759Z,8.94
2023-05-04T03:54:37.935Z,8.93
2023-05-04T03:57:07.698Z,8.98
2023-05-04T03:59:37.577Z,9.02
2023-05-04T04:02:07.686Z,8.91
2023-05-04T04:04:37.127Z,8.85
2023-05-04T04:07:05.685Z,8.88
2023-05-04T04:09:33.943Z,8.78
2023-05-04T04:12:02.259Z,8.78
2023-05-04T04:14:31.891Z,8.77
2023-05-04T04:17:00.110Z,8.81
2023-05-04T04:19:28.311Z,8.76
2023-05-04T04:21:58.278Z,8.82
2023-05-04T04:24:26.921Z,8.79
2023-05-04T04:26:55.128Z,8.87
2023-05-04T04:29:23.324Z,8.82
2023-05-04T04:31:53.005Z,8.83
2023-05-04T04:34:21.305Z,8.74
2023-05-04T04:36:50.042Z,8.90
2023-05-04T04:39:18.469Z,8.91
2023-05-04T04:41:46.765Z,8.91
2023-05-04T04:44:15.107Z,8.95
2023-05-04T04:46:44.650Z,8.88
2023-05-04T04:49:14.288Z,8.87
2023-05-04T04:51:42.527Z,9.01
2023-05-04T04:54:11.292Z,8.92
2023-05-04T04:56:40.550Z,8.89
2023-05-04T04:59:10.627Z,9.00
2023-05-04T05:01:38.884Z,9.00
2023-05-04T05:04:07.684Z,8.98
2023-05-04T05:06:37.727Z,9.00
2023-05-04T05:09:06.008Z,9.07
2023-05-04T05:11:34.310Z,9.06
2023-05-04T05:14:02.560Z,9.10
2023-05-04T05:16:31.058Z,9.17
2023-05-04T05:18:59.319Z,9.14
2023-05-04T05:21:27.526Z,9.11
2023-05-04T05:23:57.117Z,9.08
2023-05-04T05:26:25.830Z,9.14
2023-05-04T05:28:54.018Z,9.15
2023-05-04T05:31:22.416Z,9.21
2023-05-04T05:33:50.782Z,9.18
2023-05-04T05:36:18.993Z,9.26
2023-05-04T05:38:48.947Z,9.26
2023-05-04T05:41:20.281Z,9.25
2023-05-04T05:43:48.531Z,9.36
2023-05-04T05:46:16.891Z,9.42
2023-05-04T05:48:45.258Z,9.53
2023-05-04T05:51:13.467Z,9.62
2023-05-04T05:53:42.781Z,9.66
2023-05-04T05:56:11.095Z,9.78
2023-05-04T05:58:40.724Z,9.96
2023-05-04T06:01:09.088Z,10.00
2023-05-04T06:03:37.805Z,10.03
2023-05-04T06:06:06.433Z,10.07
2023-05-04T06:08:34.801Z,10.18
2023-05-04T06:11:03.019Z,10.27
2023-05-04T06:13:31.201Z,10.29
2023-05-04T06:16:00.924Z,10.42
2023-05-04T06:18:29.206Z,10.65
2023-05-04T06:21:01.307Z,10.58
2023-05-04T06:23:29.838Z,10.64
2023-05-04T06:25:58.438Z,10.57
2023-05-04T06:28:26.773Z,10.67
2023-05-04T06:30:55.048Z,10.93
2023-05-04T06:33:24.837Z,11.08
2023-05-04T06:35:53.640Z,11.15
2023-05-04T06:38:22.312Z,11.19
2023-05-04T06:40:50.569Z,11.12
2023-05-04T06:43:19.055Z,11.25
2023-05-04T06:45:47.309Z,11.41
2023-05-04T06:48:15.594Z,11.52
2023-05-04T06:50:45.392Z,11.58
2023-05-04T06:53:13.592Z,11.61
2023-05-04T06:55:41.862Z,11.70
2023-05-04T06:58:10.106Z,11.82
2023-05-04T07:00:38.354Z,11.97
2023-05-04T07:03:06.717Z,12.02
2023-05-04T07:05:36.904Z,12.06
2023-05-04T07:08:06.824Z,12.20
2023-05-04T07:10:35.078Z,12.47
2023-05-04T07:13:03.572Z,12.61
2023-05-04T07:15:33.772Z,12.51
2023-05-04T07:18:02.512Z,12.50
2023-05-04T07:20:30.789Z,12.47
2023-05-04T07:22:59.003Z,12.48
2023-05-04T07:25:29.441Z,12.38
2023-05-04T07:27:58.374Z,12.66
2023-05-04T07:30:26.928Z,12.74
2023-05-04T07:32:55.226Z,12.76
2023-05-04T07:35:23.812Z,12.94
2023-05-04T07:37:52.013Z,13.00
2023-05-04T07:40:21.509Z,13.15
2023-05-04T07:42:51.132Z,13.26
2023-05-04T07:45:19.737Z,13.51
2023-05-04T07:47:48.007Z,13.73
2023-05-04T07:50:16.459Z,13.81
2023-05-04T07:52:46.368Z,14.10
2023-05-04T07:55:14.815Z,14.27
2023-05-04T07:57:43.133Z,14.33
2023-05-04T08:00:14.807Z,14.12
2023-05-04T08:02:43.166Z,14.28
2023-05-04T08:05:11.823Z,14.27
2023-05-04T08:07:40.211Z,14.60
2023-05-04T08:10:09.863Z,14.97
2023-05-04T08:12:38.129Z,15.38
2023-05-04T08:15:07.689Z,15.38
2023-05-04T08:17:39.357Z,15.44
2023-05-04T08:20:09.564Z,15.51
2023-05-04T08:22:38.651Z,15.45
2023-05-04T08:25:08.201Z,15.84
2023-05-04T08:27:36.487Z,15.88
2023-05-04T08:30:05.255Z,16.21
2023-05-04T08:32:33.657Z,16.28
2023-05-04T08:35:03.520Z,16.22
2023-05-04T08:37:31.964Z,16.25
2023-05-04T08:40:00.218Z,16.57
2023-05-04T08:42:29.468Z,16.98
2023-05-04T08:44:58.364Z,17.22
2023-05-04T08:47:27.347Z,17.10
2023-05-04T08:49:56.398Z,17.14
2023-05-04T08:52:27.040Z,17.35
2023-05-04T08:54:57.657Z,17.53
2023-05-04T08:57:26.745Z,17.43
2023-05-04T08:59:56.878Z,17.55
2023-05-04T09:02:26.063Z,17.59
2023-05-04T09:04:55.302Z,17.81
2023-05-04T09:07:25.042Z,18.12
2023-05-04T09:09:53.817Z,18.24
2023-05-04T09:12:22.062Z,18.11
2023-05-04T09:14:50.416Z,18.25
2023-05-04T09:17:25.503Z,18.12
2023-05-04T09:20:01.394Z,18.55
2023-05-04T09:22:31.762Z,18.54
2023-05-04T09:25:08.761Z,18.73
2023-05-04T09:27:37.008Z,18.95
2023-05-04T09:30:05.941Z,19.03
2023-05-04T09:32:38.020Z,18.96
2023-05-04T09:35:07.937Z,19.30
2023-05-04T09:37:46.922Z,19.56
2023-05-04T09:40:15.934Z,19.56
2023-05-04T09:42:44.275Z,19.09
2023-05-04T09:45:13.696Z,19.52
2023-05-04T09:47:44.160Z,19.66
2023-05-04T09:50:19.742Z,19.39
2023-05-04T09:52:51.432Z,19.53
2023-05-04T09:55:21.209Z,19.72
2023-05-04T09:57:50.982Z,19.84
2023-05-04T10:00:20.368Z,19.85
2023-05-04T10:02:49.245Z,20.03
2023-05-04T10:05:21.223Z,20.20
2023-05-04T10:07:51.230Z,20.13
2023-05-04T10:10:19.445Z,20.30
2023-05-04T10:12:47.998Z,20.19
2023-05-04T10:15:18.284Z,19.94
2023-05-04T10:17:59.705Z,20.62
2023-05-04T10:20:44.203Z,20.77
2023-05-04T10:23:46.567Z,20.84
2023-05-04T10:26:50.247Z,20.84
2023-05-04T10:29:23.489Z,20.79
2023-05-04T10:31:53.487Z,21.09
2023-05-04T10:34:26.914Z,20.74
2023-05-04T10:36:55.465Z,20.89
2023-05-04T10:39:26.200Z,21.23
2023-05-04T10:41:59.192Z,21.09
2023-05-04T10:44:28.711Z,21.05
2023-05-04T10:47:01.760Z,21.24
2023-05-04T10:49:30.778Z,20.94
2023-05-04T10:52:12.915Z,21.38
2023-05-04T10:54:44.117Z,21.29
2023-05-04T10:57:14.687Z,21.01
2023-05-04T10:59:42.960Z,21.44
2023-05-04T11:02:12.057Z,21.49
2023-05-04T11:04:40.600Z,21.55
2023-05-04T11:07:09.013Z,21.75
2023-05-04T11:09:38.901Z,21.63
2023-05-04T11:12:10.803Z,21.68
2023-05-04T11:14:42.607Z,22.11
2023-05-04T11:17:26.699Z,22.81
2023-05-04T11:19:55.499Z,22.67
2023-05-04T11:22:23.919Z,22.63
2023-05-04T11:24:52.860Z,22.73
2023-05-04T11:27:24.892Z,22.40
2023-05-04T11:30:00.285Z,22.54
2023-05-04T11:32:36.092Z,22.51
2023-05-04T11:35:05.689Z,22.40
2023-05-04T11:37:40.794Z,22.47
2023-05-04T11:40:14.202Z,22.82
2023-05-04T11:42:44.722Z,23.05
2023-05-04T11:45:15.699Z,22.97
2023-05-04T11:47:45.047Z,22.75
2023-05-04T11:50:15.147Z,23.08
2023-05-04T11:52:44.545Z,23.29
2023-05-04T11:55:15.063Z,23.65
2023-05-04T11:57:44.612Z,23.38
2023-05-04T12:00:13.966Z,23.76
2023-05-04T12:02:42.735Z,22.97
2023-05-04T12:05:14.875Z,22.94
2023-05-04T12:07:43.177Z,23.47
2023-05-04T12:10:11.818Z,23.45
2023-05-04T12:12:40.078Z,24.26
2023-05-04T12:15:11.419Z,23.73
2023-05-04T12:17:42.909Z,23.83
2023-05-04T12:20:11.997Z,23.88
2023-05-04T12:22:40.605Z,24.03
2023-05-04T12:25:11.372Z,24.14
2023-05-04T12:27:42.162Z,24.10
2023-05-04T12:30:13.377Z,24.28
2023-05-04T12:32:41.829Z,24.46
2023-05-04T12:35:10.813Z,24.57
2023-05-04T12:37:39.090Z,24.88
2023-05-04T12:40:20.959Z,24.98
2023-05-04T12:42:55.843Z,24.03
2023-05-04T12:45:25.438Z,24.60
2023-05-04T12:47:53.682Z,23.82
2023-05-04T12:50:22.067Z,23.41
2023-05-04T12:52:50.267Z,23.08
2023-05-04T12:55:18.642Z,23.16
2023-05-04T12:57:47.363Z,24.14
2023-05-04T13:00:16.642Z,24.57
2023-05-04T13:02:46.217Z,24.06
2023-05-04T13:05:15.784Z,23.36
2023-05-04T13:07:44.032Z,23.38
2023-05-04T13:10:12.412Z,22.96
2023-05-04T13:12:40.742Z,22.84
2023-05-04T13:15:10.447Z,24.04
2023-05-04T13:17:39.385Z,24.50
2023-05-04T13:20:10.537Z,25.50
2023-05-04T13:22:39.740Z,26.31
2023-05-04T13:25:09.252Z,26.40
2023-05-04T13:27:37.625Z,24.32
2023-05-04T13:30:08.515Z,23.65
2023-05-04T13:32:36.830Z,24.05
2023-05-04T13:35:05.720Z,25.61
2023-05-04T13:37:35.611Z,26.36
2023-05-04T13:40:03.887Z,26.37
2023-05-04T13:42:32.097Z,25.61
2023-05-04T13:45:00.266Z,25.95
2023-05-04T13:47:28.475Z,25.72
2023-05-04T13:49:56.747Z,26.41
2023-05-04T13:52:24.986Z,25.66
2023-05-04T13:54:55.220Z,25.81
2023-05-04T13:57:23.443Z,25.99
2023-05-04T14:00:02.886Z,26.30
2023-05-04T14:02:42.216Z,26.68
2023-05-04T14:05:10.750Z,26.73
2023-05-04T14:07:38.972Z,26.84
2023-05-04T14:10:09.709Z,25.68
2023-05-04T14:12:38.017Z,24.95
2023-05-04T14:15:07.474Z,24.69
2023-05-04T14:17:36.788Z,24.76
2023-05-04T14:20:05.905Z,25.36
2023-05-04T14:22:36.431Z,25.66
2023-05-04T14:25:08.789Z,24.87
2023-05-04T14:27:37.249Z,24.87
2023-05-04T14:30:09.401Z,25.89
2023-05-04T14:32:38.008Z,26.40
2023-05-04T14:35:08.889Z,26.91
2023-05-04T14:37:39.017Z,26.84
2023-05-04T14:40:10.275Z,28.45
2023-05-04T14:42:39.453Z,26.93
2023-05-04T14:45:08.886Z,26.68
2023-05-04T14:47:37.323Z,26.65
2023-05-04T14:50:07.390Z,26.83
2023-05-04T14:52:36.027Z,25.90
2023-05-04T14:55:06.440Z,24.93
2023-05-04T14:57:36.683Z,24.56
2023-05-04T15:00:08.789Z,24.38
2023-05-04T15:02:38.470Z,24.71
2023-05-04T15:05:09.811Z,25.88
2023-05-04T15:07:37.995Z,25.46
2023-05-04T15:10:08.181Z,25.57
2023-05-04T15:12:39.620Z,25.88
2023-05-04T15:15:08.840Z,26.06
2023-05-04T15:17:37.091Z,25.14
2023-05-04T15:20:06.258Z,25.29
2023-05-04T15:22:34.862Z,25.74
2023-05-04T15:25:03.562Z,25.81
2023-05-04T15:27:31.772Z,25.53
2023-05-04T15:30:01.388Z,24.77
2023-05-04T15:32:29.778Z,24.75
2023-05-04T15:35:05.081Z,25.08
2023-05-04T15:37:34.508Z,24.76
2023-05-04T15:40:02.954Z,24.88
2023-05-04T15:42:31.609Z,24.82
2023-05-04T15:45:01.400Z,24.63
2023-05-04T15:47:30.380Z,24.61
2023-05-04T15:49:58.788Z,24.50
2023-05-04T15:52:27.047Z,24.36
2023-05-04T15:54:56.252Z,24.46
2023-05-04T15:57:24.509Z,24.36
2023-05-04T15:59:52.895Z,24.19
2023-05-04T16:02:22.989Z,24.09
2023-05-04T16:04:51.276Z,24.05
2023-05-04T16:07:19.608Z,24.25
2023-05-04T16:09:47.797Z,24.25
2023-05-04T16:12:16.029Z,24.24
2023-05-04T16:14:44.359Z,24.33
2023-05-04T16:17:12.576Z,24.51
2023-05-04T16:19:42.208Z,24.34
2023-05-04T16:22:10.510Z,24.24
2023-05-04T16:24:38.699Z,24.13
2023-05-04T16:27:07.852Z,24.12
2023-05-04T16:29:36.571Z,24.09
2023-05-04T16:32:05.156Z,24.05
2023-05-04T16:34:33.385Z,24.02
2023-05-04T16:37:03.640Z,24.04
2023-05-04T16:39:34.225Z,23.99
2023-05-04T16:42:02.943Z,23.82
2023-05-04T16:44:32.123Z,23.96
2023-05-04T16:47:00.421Z,23.80
2023-05-04T16:49:28.669Z,23.97
2023-05-04T16:51:57.257Z,24.74
2023-05-04T16:54:26.911Z,24.99
2023-05-04T16:56:55.444Z,24.92
2023-05-04T16:59:23.648Z,24.77
2023-05-04T17:01:51.947Z,24.57
2023-05-04T17:04:20.256Z,24.44
2023-05-04T17:06:48.485Z,24.25
2023-05-04T17:09:16.705Z,24.00
2023-05-04T17:11:47.364Z,24.04
2023-05-04T17:14:16.170Z,23.86
2023-05-04T17:16:44.411Z,23.65
2023-05-04T17:19:13.008Z,23.60
2023-05-04T17:21:41.328Z,23.59
2023-05-04T17:24:09.618Z,23.51
2023-05-04T17:26:37.873Z,23.39
2023-05-04T17:29:08.518Z,23.26
2023-05-04T17:31:36.814Z,23.16
2023-05-04T17:34:05.214Z,23.12
2023-05-04T17:36:33.443Z,22.98
2023-05-04T17:39:01.625Z,22.93
2023-05-04T17:41:51.022Z,22.90
2023-05-04T17:44:20.646Z,22.87
2023-05-04T17:46:48.869Z,22.81
2023-05-04T17:49:19.159Z,22.77
2023-05-04T17:51:49.130Z,22.62
2023-05-04T17:54:17.544Z,22.52
2023-05-04T17:56:45.807Z,22.48
2023-05-04T17:59:14.106Z,22.44
2023-05-04T18:01:43.679Z,22.36
2023-05-04T18:04:12.001Z,22.32
2023-05-04T18:06:40.324Z,22.22
2023-05-04T18:09:08.750Z,22.20
2023-05-04T18:11:37.080Z,22.18
2023-05-04T18:14:05.328Z,22.11
2023-05-04T18:16:36.214Z,22.17
2023-05-04T18:19:06.471Z,22.05
2023-05-04T18:21:36.566Z,21.96
2023-05-04T18:24:05.131Z,21.87
2023-05-04T18:26:33.391Z,21.79
2023-05-04T18:29:17.340Z,21.72
2023-05-04T18:31:47.274Z,21.63
2023-05-04T18:34:16.964Z,21.44
2023-05-04T18:36:46.895Z,21.29
2023-05-04T18:39:16.245Z,21.21
2023-05-04T18:41:44.553Z,21.08
2023-05-04T18:44:18.576Z,21.00
2023-05-04T18:46:47.161Z,21.01
2023-05-04T18:49:16.822Z,20.95
2023-05-04T18:51:45.020Z,20.87
2023-05-04T18:54:15.285Z,20.75
2023-05-04T18:56:43.686Z,20.57
2023-05-04T18:59:11.901Z,20.54
2023-05-04T19:01:40.449Z,20.60
2023-05-04T19:04:08.881Z,20.47
2023-05-04T19:06:38.566Z,20.39
2023-05-04T19:09:08.141Z,20.34
2023-05-04T19:11:36.813Z,20.16
2023-05-04T19:14:05.078Z,20.04
2023-05-04T19:16:33.309Z,19.91
2023-05-04T19:19:01.612Z,19.84
2023-05-04T19:21:29.836Z,19.80
2023-05-04T19:23:59.429Z,19.74
2023-05-04T19:26:27.756Z,19.67
2023-05-04T19:28:55.965Z,19.59
2023-05-04T19:31:24.202Z,19.51
2023-05-04T19:33:52.660Z,19.44
2023-05-04T19:36:20.939Z,19.42
2023-05-04T19:38:49.256Z,19.33
2023-05-04T19:41:18.946Z,19.37
2023-05-04T19:43:47.205Z,19.35
2023-05-04T19:46:15.639Z,19.35
2023-05-04T19:48:43.901Z,19.37
2023-05-04T19:51:12.176Z,19.30
2023-05-04T19:53:40.423Z,19.30
2023-05-04T19:56:08.656Z,19.23
2023-05-04T19:58:38.649Z,19.24
2023-05-04T20:01:06.953Z,19.20
2023-05-04T20:03:35.413Z,19.18
2023-05-04T20:06:03.952Z,19.12
2023-05-04T20:08:32.235Z,19.17
2023-05-04T20:11:00.450Z,19.12
2023-05-04T20:13:28.687Z,19.18
2023-05-04T20:15:58.327Z,19.23
2023-05-04T20:18:26.708Z,19.23
2023-05-04T20:20:55.054Z,19.30
2023-05-04T20:23:23.329Z,19.30
2023-05-04T20:25:51.757Z,19.23
2023-05-04T20:28:20.243Z,19.28
2023-05-04T20:30:48.433Z,19.16
2023-05-04T20:33:18.077Z,19.09
2023-05-04T20:35:46.349Z,19.07
2023-05-04T20:38:15.461Z,19.02
2023-05-04T20:40:43.647Z,19.01
2023-05-04T20:43:11.977Z,18.96
2023-05-04T20:45:40.147Z,18.89
2023-05-04T20:48:08.510Z,18.93
2023-05-04T20:50:40.024Z,18.89
2023-05-04T20:53:08.777Z,18.88
2023-05-04T20:55:37.256Z,18.87
2023-05-04T20:58:05.489Z,18.87
2023-05-04T21:00:33.914Z,18.73
2023-05-04T21:03:02.217Z,18.71
2023-05-04T21:05:31.020Z,18.64
2023-05-04T21:08:01.155Z,18.59
2023-05-04T21:10:29.561Z,18.61
2023-05-04T21:12:58.363Z,18.57
2023-05-04T21:15:26.781Z,18.39
2023-05-04T21:17:55.518Z,18.18
2023-05-04T21:20:24.007Z,17.95
2023-05-04T21:22:52.268Z,17.80
2023-05-04T21:25:22.299Z,17.64
2023-05-04T21:27:50.587Z,17.54
2023-05-04T21:30:18.869Z,17.52
2023-05-04T21:32:47.124Z,17.46
2023-05-04T21:35:16.461Z,17.38
2023-05-04T21:37:44.664Z,17.32
2023-05-04T21:40:13.032Z,17.28
2023-05-04T21:42:42.709Z,17.31
2023-05-04T21:45:11.641Z,17.25
2023-05-04T21:47:39.921Z,17.26
2023-05-04T21:50:09.490Z,17.25
2023-05-04T21:52:37.910Z,17.18
2023-05-04T21:55:06.996Z,17.22
2023-05-04T21:57:35.349Z,17.22
2023-05-04T22:00:11.978Z,17.20
2023-05-04T22:02:40.823Z,17.14
2023-05-04T22:05:11.412Z,17.10
2023-05-04T22:07:39.845Z,17.17
2023-05-04T22:10:09.461Z,17.18
2023-05-04T22:12:38.063Z,17.16
2023-05-04T22:15:10.250Z,17.14
2023-05-04T22:17:38.905Z,17.19
2023-05-04T22:20:09.175Z,17.22
2023-05-04T22:22:37.563Z,17.14
2023-05-04T22:25:06.421Z,17.02
2023-05-04T22:27:34.617Z,16.96
2023-05-04T22:30:02.807Z,16.91
2023-05-04T22:32:32.469Z,16.70
2023-05-04T22:35:00.710Z,16.54
2023-05-04T22:37:28.882Z,16.41
2023-05-04T22:39:57.072Z,16.34
2023-05-04T22:42:25.322Z,16.24
2023-05-04T22:44:53.499Z,16.15
2023-05-04T22:47:21.681Z,16.04
2023-05-04T22:49:55.096Z,16.07
2023-05-04T22:52:23.496Z,16.01
2023-05-04T22:54:51.742Z,16.01
2023-05-04T22:57:19.964Z,15.92
2023-05-04T22:59:48.203Z,15.82
2023-05-04T23:02:16.505Z,15.84
2023-05-04T23:04:44.945Z,15.73
2023-05-04T23:07:14.643Z,15.89
2023-05-04T23:09:45.235Z,15.86
2023-05-04T23:12:13.542Z,15.84
2023-05-04T23:14:41.775Z,15.76
2023-05-04T23:17:10.505Z,15.75
2023-05-04T23:19:38.708Z,15.66
2023-05-04T23:22:06.980Z,15.55
2023-05-04T23:24:36.575Z,15.59
2023-05-04T23:27:04.987Z,15.42
2023-05-04T23:29:33.383Z,15.43
2023-05-04T23:32:01.710Z,15.29
2023-05-04T23:34:29.927Z,15.27
2023-05-04T23:36:58.209Z,15.19
2023-05-04T23:39:26.482Z,15.18
2023-05-04T23:41:56.066Z,15.04
2023-05-04T23:44:24.706Z,15.03
2023-05-04T23:46:53.019Z,15.03
2023-05-04T23:49:21.213Z,15.01
2023-05-04T23:51:49.481Z,14.84
2023-05-04T23:54:17.668Z,14.80
2023-05-04T23:56:45.901Z,14.85
2023-05-04T23:59:15.447Z,14.82
